Chesnee, South Carolina
Current Conditions -  °F | °C
As of 10:35 PM on Monday 22 Dec 2014 (Local Time) from KEHO Reporting Station
Overcast Overcast  
Wind Chill: 32°   Ceiling: 500
Heat Index: 37°   Visibility: 10mi
Dew Point: 36°   Wind: 7mph
Humidity: 95%   Direction: 30°NNE
Pressure: 30.02"   Gusts: NA
Location:  35.15°N, 81.86°W
Report Text: KEHO 230335Z AUTO 03006KT 10SM BKN005 OVC018 03/02 A3002 RMK AO2 P0001 T00280021
Loading
Personal Weather Stations






























Interactive Weather Map New forecast layout! Learn more

10-Day Weather Forecast

Advertisements
Track Severe Weather on mobile